Time;durP1;ratioP1;P1;durP2;ratioP2;P2;SDS_P1;SDS_P2;PMS_P1;PMS_P2;Temp;Humidity;BMP_temperature;BMP_pressure;BME280_temperature;BME280_humidity;BME280_pressure;Samples;Min_cycle;Max_cycle;Signal;HPM_P1;HPM_P2
2022/07/04 00:00:11;;;;;;;10.30;3.60;;;;;;;;;;5035420;28;20037;-76
2022/07/04 00:02:38;;;;;;;10.07;4.28;;;;;;;;;;5035333;28;20021;-76
2022/07/04 00:05:04;;;;;;;6.90;3.40;;;;;;;;;;5035216;28;20365;-76
2022/07/04 00:07:30;;;;;;;5.30;3.30;;;;;;;;;;5035407;28;20113;-76
2022/07/04 00:09:56;;;;;;;7.40;3.67;;;;;;;;;;5035305;28;20033;-76
2022/07/04 00:12:22;;;;;;;7.72;3.63;;;;;;;;;;5035131;28;20028;-76
2022/07/04 00:14:48;;;;;;;7.05;2.97;;;;;;;;;;5025193;28;20029;-76
2022/07/04 00:17:14;;;;;;;7.03;3.45;;;;;;;;;;5015401;28;20029;-76
2022/07/04 00:19:40;;;;;;;7.57;3.47;;;;;;;;;;5030183;28;20033;-76
2022/07/04 00:22:06;;;;;;;7.78;3.50;;;;;;;;;;5015073;28;20030;-76
2022/07/04 00:24:32;;;;;;;6.82;3.45;;;;;;;;;;5015182;28;20030;-76
2022/07/04 00:26:58;;;;;;;9.75;3.90;;;;;;;;;;5015317;28;20025;-76
2022/07/04 00:29:25;;;;;;;6.03;3.88;;;;;;;;;;5015146;28;20026;-76
2022/07/04 00:31:51;;;;;;;6.43;3.90;;;;;;;;;;5015312;28;20093;-76
2022/07/04 00:34:17;;;;;;;10.20;3.88;;;;;;;;;;5015168;28;20025;-78
2022/07/04 00:36:43;;;;;;;7.78;3.83;;;;;;;;;;5030534;28;20052;-76
2022/07/04 00:39:09;;;;;;;6.55;3.80;;;;;;;;;;5015229;28;20026;-76
2022/07/04 00:41:35;;;;;;;7.68;3.90;;;;;;;;;;5014875;28;20026;-75
2022/07/04 00:44:05;;;;;;;5.80;3.30;;;;;;;;;;5025632;28;20551;-76
2022/07/04 00:46:31;;;;;;;7.28;4.15;;;;;;;;;;5034582;28;20080;-76
2022/07/04 00:48:57;;;;;;;8.07;3.72;;;;;;;;;;5034621;28;20464;-76
2022/07/04 00:51:23;;;;;;;10.80;4.30;;;;;;;;;;5033975;28;20049;-76
2022/07/04 00:53:51;;;;;;;8.65;3.72;;;;;;;;;;5034080;28;20025;-77
2022/07/04 00:56:17;;;;;;;10.43;4.05;;;;;;;;;;5032863;28;20025;-76
2022/07/04 00:58:43;;;;;;;6.68;3.78;;;;;;;;;;5034567;28;20017;-76
2022/07/04 01:01:09;;;;;;;6.45;3.92;;;;;;;;;;5034368;28;20107;-76
2022/07/04 01:03:36;;;;;;;6.43;4.10;;;;;;;;;;5034144;28;20374;-76
2022/07/04 01:06:03;;;;;;;8.30;3.90;;;;;;;;;;5034152;28;20029;-77
2022/07/04 01:08:29;;;;;;;8.48;4.35;;;;;;;;;;5034325;28;20017;-74
2022/07/04 01:10:55;;;;;;;7.15;3.72;;;;;;;;;;5034254;28;20033;-75
2022/07/04 01:13:21;;;;;;;8.95;4.80;;;;;;;;;;5034024;28;20032;-74
2022/07/04 01:15:48;;;;;;;6.88;4.30;;;;;;;;;;5033799;28;20032;-74
2022/07/04 01:18:14;;;;;;;11.95;4.43;;;;;;;;;;5034069;28;20037;-74
2022/07/04 01:20:40;;;;;;;8.05;4.57;;;;;;;;;;5034134;28;20025;-74
2022/07/04 01:23:06;;;;;;;8.45;4.38;;;;;;;;;;5033700;28;20029;-74
2022/07/04 01:25:32;;;;;;;10.07;4.85;;;;;;;;;;5033729;28;20025;-77
2022/07/04 01:28:02;;;;;;;6.63;4.55;;;;;;;;;;5032577;28;20387;-77
2022/07/04 01:30:29;;;;;;;10.45;4.10;;;;;;;;;;5033602;28;20371;-77
2022/07/04 01:32:55;;;;;;;7.07;4.30;;;;;;;;;;5033946;28;20018;-77
2022/07/04 01:35:22;;;;;;;9.13;4.57;;;;;;;;;;5033593;28;20030;-77
2022/07/04 01:37:48;;;;;;;10.23;4.60;;;;;;;;;;5033828;28;20108;-77
2022/07/04 01:40:15;;;;;;;8.70;4.70;;;;;;;;;;5033557;28;20040;-77
2022/07/04 01:42:41;;;;;;;6.75;4.72;;;;;;;;;;5033550;28;20416;-77
2022/07/04 01:45:08;;;;;;;6.35;4.15;;;;;;;;;;5033048;28;20073;-77
2022/07/04 01:47:34;;;;;;;9.15;4.80;;;;;;;;;;5033495;28;20017;-76
2022/07/04 01:50:00;;;;;;;6.43;4.20;;;;;;;;;;5033275;28;20021;-77
2022/07/04 01:52:26;;;;;;;8.32;5.47;;;;;;;;;;5033345;28;20026;-77
2022/07/04 01:54:53;;;;;;;6.75;4.55;;;;;;;;;;5032743;28;20021;-77
2022/07/04 01:57:19;;;;;;;16.63;5.78;;;;;;;;;;5033158;28;20182;-76
2022/07/04 02:02:29;;;;;;;10.05;5.35;;;;;;;;;;5033114;28;20221;-77
2022/07/04 02:04:55;;;;;;;8.68;4.55;;;;;;;;;;5032880;28;20032;-76
2022/07/04 02:07:21;;;;;;;10.48;5.63;;;;;;;;;;5032995;28;20056;-77
2022/07/04 02:09:47;;;;;;;11.77;5.10;;;;;;;;;;5033150;28;20021;-77
2022/07/04 02:15:00;;;;;;;11.60;5.05;;;;;;;;;;5050526;28;20181;-76
2022/07/04 02:17:26;;;;;;;8.95;4.70;;;;;;;;;;5050778;28;20037;-76
2022/07/04 02:19:52;;;;;;;6.80;4.25;;;;;;;;;;5050603;28;20033;-76
2022/07/04 02:22:18;;;;;;;6.13;4.45;;;;;;;;;;5050718;28;20037;-76
2022/07/04 02:24:44;;;;;;;7.18;4.70;;;;;;;;;;5050937;28;20025;-76
2022/07/04 02:27:10;;;;;;;8.18;5.00;;;;;;;;;;5050714;28;20055;-76
2022/07/04 02:29:36;;;;;;;8.13;4.90;;;;;;;;;;5050931;28;20079;-76
2022/07/04 02:32:03;;;;;;;6.72;4.72;;;;;;;;;;5050736;28;20537;-76
2022/07/04 02:34:29;;;;;;;9.13;4.85;;;;;;;;;;5050470;28;20036;-76
2022/07/04 02:36:55;;;;;;;7.57;4.50;;;;;;;;;;5050790;28;20033;-76
2022/07/04 02:39:21;;;;;;;10.43;4.88;;;;;;;;;;5050406;28;20040;-76
2022/07/04 02:41:47;;;;;;;8.57;4.60;;;;;;;;;;5050647;28;20036;-77
2022/07/04 02:44:13;;;;;;;4.80;4.00;;;;;;;;;;5050216;28;20083;-76
2022/07/04 02:46:39;;;;;;;9.55;4.07;;;;;;;;;;5050309;28;20454;-76
2022/07/04 02:49:05;;;;;;;7.53;3.88;;;;;;;;;;5050572;28;20556;-76
2022/07/04 02:51:31;;;;;;;8.55;4.32;;;;;;;;;;5039784;28;20030;-76
2022/07/04 02:53:58;;;;;;;6.63;4.20;;;;;;;;;;5012811;28;20109;-77
2022/07/04 02:56:24;;;;;;;9.80;4.32;;;;;;;;;;5023169;28;20057;-76
2022/07/04 02:58:50;;;;;;;6.88;4.07;;;;;;;;;;5032630;28;20492;-76
2022/07/04 03:01:16;;;;;;;6.70;4.35;;;;;;;;;;5032637;28;20105;-76
2022/07/04 03:03:42;;;;;;;6.68;4.43;;;;;;;;;;5030986;28;20428;-76
2022/07/04 03:06:08;;;;;;;8.40;4.70;;;;;;;;;;5034124;28;20083;-76
2022/07/04 03:08:35;;;;;;;9.30;4.13;;;;;;;;;;5035944;28;20030;-76
2022/07/04 03:11:01;;;;;;;8.77;4.22;;;;;;;;;;5035493;28;20029;-76
2022/07/04 03:13:27;;;;;;;7.65;4.20;;;;;;;;;;5035382;28;20052;-76
2022/07/04 03:15:53;;;;;;;6.82;4.13;;;;;;;;;;5016578;28;20026;-76
2022/07/04 03:18:20;;;;;;;10.40;4.60;;;;;;;;;;5015569;28;20042;-77
2022/07/04 03:20:46;;;;;;;6.68;4.55;;;;;;;;;;5015986;28;20025;-76
2022/07/04 03:23:12;;;;;;;12.68;5.63;;;;;;;;;;5016622;28;20033;-76
2022/07/04 03:25:39;;;;;;;7.55;4.80;;;;;;;;;;5016709;28;20022;-76
2022/07/04 03:28:06;;;;;;;11.48;4.60;;;;;;;;;;5016352;28;20473;-76
2022/07/04 03:30:32;;;;;;;8.98;5.20;;;;;;;;;;5016245;28;20025;-77
2022/07/04 03:32:58;;;;;;;7.32;4.97;;;;;;;;;;5016466;28;20026;-76
2022/07/04 03:35:24;;;;;;;8.82;4.38;;;;;;;;;;5016158;28;20079;-76
2022/07/04 03:37:51;;;;;;;8.00;4.30;;;;;;;;;;5016043;28;20068;-76
2022/07/04 03:40:17;;;;;;;8.65;4.40;;;;;;;;;;5016222;28;20502;-76
2022/07/04 03:42:43;;;;;;;6.47;4.20;;;;;;;;;;5016261;28;20030;-77
2022/07/04 03:45:09;;;;;;;6.25;4.07;;;;;;;;;;5022890;28;20050;-77
2022/07/04 03:47:35;;;;;;;11.10;5.80;;;;;;;;;;5035847;28;20017;-76
2022/07/04 03:50:02;;;;;;;8.00;5.38;;;;;;;;;;5035684;28;20022;-77
2022/07/04 03:52:28;;;;;;;10.20;5.43;;;;;;;;;;5035847;28;20460;-76
2022/07/04 03:54:54;;;;;;;11.90;5.22;;;;;;;;;;5035803;28;20194;-76
2022/07/04 03:57:20;;;;;;;6.72;4.75;;;;;;;;;;5035643;28;20164;-76
2022/07/04 03:59:46;;;;;;;8.80;4.78;;;;;;;;;;5035605;28;20029;-77
2022/07/04 04:02:12;;;;;;;6.90;4.50;;;;;;;;;;5035457;28;20032;-77
2022/07/04 04:07:23;;;;;;;10.15;5.05;;;;;;;;;;5035574;28;20079;-76
2022/07/04 04:09:49;;;;;;;8.32;4.72;;;;;;;;;;5035404;28;20441;-76
2022/07/04 04:12:15;;;;;;;7.95;4.97;;;;;;;;;;5035392;28;20360;-76
2022/07/04 04:14:41;;;;;;;8.57;4.75;;;;;;;;;;5026150;28;20431;-77
2022/07/04 04:17:07;;;;;;;10.68;4.63;;;;;;;;;;5015412;28;20440;-77
2022/07/04 04:19:33;;;;;;;9.82;5.10;;;;;;;;;;5015676;28;20044;-76
2022/07/04 04:21:59;;;;;;;7.40;4.95;;;;;;;;;;5015370;28;20083;-77
2022/07/04 04:24:26;;;;;;;10.45;5.57;;;;;;;;;;5015178;28;20428;-77
2022/07/04 04:26:52;;;;;;;15.85;5.82;;;;;;;;;;5015541;28;20037;-77
2022/07/04 04:29:18;;;;;;;18.42;7.32;;;;;;;;;;5015551;28;20052;-77
2022/07/04 04:31:44;;;;;;;9.40;6.47;;;;;;;;;;5015105;28;20018;-76
2022/07/04 04:34:10;;;;;;;15.75;7.07;;;;;;;;;;5015513;28;20038;-76
2022/07/04 04:36:36;;;;;;;12.55;7.43;;;;;;;;;;5015455;28;20057;-76
2022/07/04 04:39:02;;;;;;;20.13;8.48;;;;;;;;;;5015110;28;20464;-77
2022/07/04 04:41:28;;;;;;;13.82;7.70;;;;;;;;;;5015328;28;20037;-76
2022/07/04 04:43:54;;;;;;;13.93;8.80;;;;;;;;;;5022226;28;20044;-76
2022/07/04 04:46:21;;;;;;;17.35;9.23;;;;;;;;;;5034973;28;20067;-76
2022/07/04 04:48:47;;;;;;;20.38;9.10;;;;;;;;;;5034665;28;20021;-77
2022/07/04 04:51:13;;;;;;;16.73;9.32;;;;;;;;;;5034744;28;20025;-76
2022/07/04 04:53:39;;;;;;;18.85;8.90;;;;;;;;;;5033448;28;20693;-77
2022/07/04 04:56:05;;;;;;;13.77;9.32;;;;;;;;;;5034503;28;20029;-77
2022/07/04 04:58:31;;;;;;;15.40;9.43;;;;;;;;;;5034628;28;20021;-77
2022/07/04 05:00:57;;;;;;;19.75;10.10;;;;;;;;;;5034744;28;20037;-76
2022/07/04 05:03:23;;;;;;;18.90;9.45;;;;;;;;;;5034278;28;20033;-76
2022/07/04 05:05:49;;;;;;;16.38;9.13;;;;;;;;;;5034099;28;20460;-76
2022/07/04 05:08:15;;;;;;;11.55;8.32;;;;;;;;;;5034034;28;20037;-76
2022/07/04 05:10:41;;;;;;;18.85;9.65;;;;;;;;;;5034326;28;20022;-76
2022/07/04 05:13:08;;;;;;;14.60;8.23;;;;;;;;;;5034222;28;20025;-78
2022/07/04 05:15:34;;;;;;;12.68;7.93;;;;;;;;;;5017911;28;20041;-75
2022/07/04 05:18:00;;;;;;;15.10;7.95;;;;;;;;;;5014586;28;20037;-75
2022/07/04 05:20:26;;;;;;;13.35;8.52;;;;;;;;;;5019840;28;20025;-75
2022/07/04 05:22:52;;;;;;;16.20;7.43;;;;;;;;;;5034158;28;20380;-76
2022/07/04 05:25:18;;;;;;;12.13;7.10;;;;;;;;;;5034026;28;20033;-76
2022/07/04 05:27:44;;;;;;;14.38;7.40;;;;;;;;;;5033684;28;20456;-76
2022/07/04 05:30:10;;;;;;;20.38;7.85;;;;;;;;;;5033110;28;20036;-76
2022/07/04 05:32:39;;;;;;;17.48;6.68;;;;;;;;;;5033698;28;20025;-76
2022/07/04 05:35:06;;;;;;;13.18;6.93;;;;;;;;;;5032812;28;20068;-76
2022/07/04 05:37:32;;;;;;;14.93;6.60;;;;;;;;;;5033111;28;20109;-76
2022/07/04 05:39:58;;;;;;;14.88;6.65;;;;;;;;;;5033460;28;20036;-75
2022/07/04 05:42:24;;;;;;;15.98;6.72;;;;;;;;;;5033796;28;20037;-75
2022/07/04 05:44:50;;;;;;;12.10;5.80;;;;;;;;;;5028677;28;20054;-76
2022/07/04 05:47:16;;;;;;;11.82;6.75;;;;;;;;;;5031063;28;20075;-76
2022/07/04 05:49:42;;;;;;;10.10;5.68;;;;;;;;;;5033360;28;20033;-76
2022/07/04 05:52:08;;;;;;;11.85;6.57;;;;;;;;;;5033453;28;20030;-75
2022/07/04 05:54:35;;;;;;;13.32;6.13;;;;;;;;;;5032907;28;20097;-74
2022/07/04 05:57:01;;;;;;;11.32;6.15;;;;;;;;;;5032600;28;20037;-75
2022/07/04 05:59:29;;;;;;;10.45;5.70;;;;;;;;;;5032950;28;20036;-76
2022/07/04 06:01:55;;;;;;;9.98;5.53;;;;;;;;;;5032134;28;20591;-76
2022/07/04 06:04:21;;;;;;;10.98;5.57;;;;;;;;;;5032305;28;20021;-75
2022/07/04 06:06:47;;;;;;;10.13;5.80;;;;;;;;;;5032888;28;20467;-75
2022/07/04 06:09:13;;;;;;;14.73;5.03;;;;;;;;;;5032841;28;20071;-76
2022/07/04 06:11:39;;;;;;;16.65;5.30;;;;;;;;;;5031920;28;20051;-76
2022/07/04 06:14:05;;;;;;;12.73;5.28;;;;;;;;;;5028166;28;20098;-76
2022/07/04 06:16:31;;;;;;;12.77;5.70;;;;;;;;;;5013238;28;20050;-76
2022/07/04 06:18:57;;;;;;;16.38;5.75;;;;;;;;;;5012880;28;20104;-75
2022/07/04 06:21:23;;;;;;;8.07;4.32;;;;;;;;;;5012662;28;20102;-76
2022/07/04 06:23:49;;;;;;;8.93;4.78;;;;;;;;;;5012523;28;20057;-76
2022/07/04 06:26:15;;;;;;;11.43;5.03;;;;;;;;;;5012527;28;20022;-77
2022/07/04 06:28:42;;;;;;;13.10;5.13;;;;;;;;;;5012420;28;20033;-76
2022/07/04 06:31:08;;;;;;;19.75;4.78;;;;;;;;;;5012470;28;20041;-75
2022/07/04 06:35:44;;;;;;;16.73;4.65;;;;;;;;;;5012231;28;20029;-74
2022/07/04 06:36:20;;;;;;;13.02;4.43;;;;;;;;;;5012317;28;20451;-72
2022/07/04 06:38:46;;;;;;;11.18;4.38;;;;;;;;;;5012258;28;20068;-73
2022/07/04 06:41:12;;;;;;;10.32;4.40;;;;;;;;;;5011885;28;20096;-75
2022/07/04 06:43:39;;;;;;;14.65;4.43;;;;;;;;;;5012035;28;20037;-76
2022/07/04 06:46:06;;;;;;;9.95;4.25;;;;;;;;;;5030365;28;20066;-76
2022/07/04 06:48:32;;;;;;;11.90;4.53;;;;;;;;;;5031862;28;20022;-76
2022/07/04 06:50:58;;;;;;;11.50;4.43;;;;;;;;;;5030433;28;20026;-76
2022/07/04 06:53:24;;;;;;;12.63;4.65;;;;;;;;;;5031790;28;20026;-75
2022/07/04 06:55:50;;;;;;;12.23;3.88;;;;;;;;;;5031635;28;20116;-76
2022/07/04 06:58:17;;;;;;;14.82;4.20;;;;;;;;;;5031687;28;20105;-78
2022/07/04 07:00:43;;;;;;;17.30;4.28;;;;;;;;;;5031693;28;20030;-74
2022/07/04 07:03:10;;;;;;;10.27;4.15;;;;;;;;;;5031658;28;20025;-76
2022/07/04 07:05:39;;;;;;;13.23;3.75;;;;;;;;;;5031549;28;20710;-77
2022/07/04 07:08:05;;;;;;;13.70;4.22;;;;;;;;;;5031558;28;20476;-77
2022/07/04 07:10:35;;;;;;;15.40;3.63;;;;;;;;;;5031806;28;20026;-77
2022/07/04 07:13:01;;;;;;;12.88;3.78;;;;;;;;;;5031891;28;20022;-78
2022/07/04 07:15:27;;;;;;;11.02;4.00;;;;;;;;;;5016471;28;20420;-77
2022/07/04 07:17:53;;;;;;;13.38;4.38;;;;;;;;;;5011697;28;20069;-77
2022/07/04 07:20:19;;;;;;;14.15;4.45;;;;;;;;;;5011656;28;20030;-76
2022/07/04 07:22:46;;;;;;;13.23;3.90;;;;;;;;;;5029719;28;20034;-75
2022/07/04 07:25:12;;;;;;;12.10;3.63;;;;;;;;;;5031082;28;20018;-77
2022/07/04 07:27:38;;;;;;;20.35;4.25;;;;;;;;;;5031355;28;20040;-77
2022/07/04 07:30:08;;;;;;;13.38;4.05;;;;;;;;;;5031308;28;20036;-77
2022/07/04 07:32:34;;;;;;;13.93;4.25;;;;;;;;;;5031074;28;20037;-78
2022/07/04 07:35:01;;;;;;;15.88;5.15;;;;;;;;;;5031176;28;20044;-76
2022/07/04 07:37:27;;;;;;;18.02;6.13;;;;;;;;;;5031352;28;20465;-78
2022/07/04 07:39:53;;;;;;;11.68;4.60;;;;;;;;;;5031295;28;20030;-77
2022/07/04 07:42:19;;;;;;;17.38;5.68;;;;;;;;;;5031192;28;20017;-77
2022/07/04 07:44:46;;;;;;;14.05;5.10;;;;;;;;;;5030208;28;20458;-77
2022/07/04 07:47:13;;;;;;;14.90;4.35;;;;;;;;;;5030846;28;20021;-77
2022/07/04 07:49:39;;;;;;;16.35;4.70;;;;;;;;;;5030536;28;20125;-77
2022/07/04 07:52:05;;;;;;;15.40;4.70;;;;;;;;;;5031451;28;20022;-77
2022/07/04 07:54:31;;;;;;;11.60;3.90;;;;;;;;;;5034444;28;20036;-77
2022/07/04 07:56:57;;;;;;;13.02;4.60;;;;;;;;;;5034453;28;20097;-77
2022/07/04 07:59:23;;;;;;;10.45;4.53;;;;;;;;;;5034335;28;20104;-77
2022/07/04 08:01:49;;;;;;;11.70;4.43;;;;;;;;;;5034618;28;20101;-77
2022/07/04 08:07:00;;;;;;;13.77;4.15;;;;;;;;;;5034721;28;20071;-77
2022/07/04 08:09:26;;;;;;;12.60;4.20;;;;;;;;;;5034344;28;20083;-77
2022/07/04 08:11:52;;;;;;;10.02;4.28;;;;;;;;;;5034343;28;20028;-77
2022/07/04 08:14:18;;;;;;;10.23;4.25;;;;;;;;;;5034200;28;20537;-77
2022/07/04 08:16:44;;;;;;;18.58;4.43;;;;;;;;;;5034238;28;20033;-77
2022/07/04 08:19:10;;;;;;;9.60;3.65;;;;;;;;;;5034023;28;20037;-77
2022/07/04 08:21:36;;;;;;;9.18;3.63;;;;;;;;;;5034344;28;20032;-77
2022/07/04 08:24:02;;;;;;;10.65;3.83;;;;;;;;;;5033887;28;20022;-76
2022/07/04 08:26:28;;;;;;;10.15;3.58;;;;;;;;;;5033120;28;20467;-77
2022/07/04 08:28:57;;;;;;;11.13;3.10;;;;;;;;;;5034032;28;20041;-77
2022/07/04 08:31:23;;;;;;;11.45;3.10;;;;;;;;;;5033970;28;20029;-76
2022/07/04 08:33:49;;;;;;;14.23;3.53;;;;;;;;;;5033972;28;20025;-76
2022/07/04 08:36:15;;;;;;;16.48;3.53;;;;;;;;;;5033936;28;20021;-77
2022/07/04 08:38:41;;;;;;;11.68;3.45;;;;;;;;;;5033719;28;20032;-76
2022/07/04 08:41:07;;;;;;;6.68;2.28;;;;;;;;;;5034009;28;20021;-76
2022/07/04 08:43:37;;;;;;;7.97;2.40;;;;;;;;;;5033094;28;20033;-76
2022/07/04 08:46:04;;;;;;;9.23;2.70;;;;;;;;;;5031633;28;20034;-77
2022/07/04 08:48:31;;;;;;;7.20;1.90;;;;;;;;;;5033776;28;20025;-77
2022/07/04 08:51:00;;;;;;;7.88;2.13;;;;;;;;;;5033383;28;20041;-76
2022/07/04 08:53:30;;;;;;;6.60;2.30;;;;;;;;;;5033671;28;20105;-76
2022/07/04 08:58:42;;;;;;;3.42;1.40;;;;;;;;;;5033418;28;20511;-77
2022/07/04 09:01:14;;;;;;;5.57;2.00;;;;;;;;;;5033393;28;20018;-77
2022/07/04 09:03:41;;;;;;;10.88;1.80;;;;;;;;;;5033377;28;20484;-78
2022/07/04 09:06:07;;;;;;;7.93;2.03;;;;;;;;;;5033414;28;20083;-77
2022/07/04 09:08:33;;;;;;;7.80;2.15;;;;;;;;;;5033159;28;20021;-77
2022/07/04 09:11:00;;;;;;;8.15;2.10;;;;;;;;;;5033203;28;20079;-76
2022/07/04 09:13:26;;;;;;;6.25;2.10;;;;;;;;;;5033434;28;20049;-77
2022/07/04 09:15:52;;;;;;;4.53;1.83;;;;;;;;;;5014241;28;20025;-77
2022/07/04 09:18:26;;;;;;;4.10;1.70;;;;;;;;;;5013260;28;20056;-74
2022/07/04 09:20:57;;;;;;;7.60;1.80;;;;;;;;;;5013019;28;20028;-75
2022/07/04 09:23:25;;;;;;;21.38;2.00;;;;;;;;;;5013080;28;20362;-76
2022/07/04 09:26:06;;;;;;;5.70;1.73;;;;;;;;;;5013323;28;20026;-76
2022/07/04 09:28:32;;;;;;;6.30;1.53;;;;;;;;;;5013143;28;20068;-75
2022/07/04 09:30:58;;;;;;;6.65;1.67;;;;;;;;;;5013034;28;20040;-75
2022/07/04 09:33:44;;;;;;;6.18;1.70;;;;;;;;;;5012979;28;20018;-76
2022/07/04 09:36:14;;;;;;;5.72;1.42;;;;;;;;;;5013052;28;20022;-76
2022/07/04 09:38:40;;;;;;;7.18;1.50;;;;;;;;;;5012979;28;20037;-76
2022/07/04 09:41:29;;;;;;;7.90;1.80;;;;;;;;;;5013066;28;20030;-76
2022/07/04 09:43:59;;;;;;;8.07;1.80;;;;;;;;;;5012419;28;20046;-76
2022/07/04 09:46:26;;;;;;;6.57;1.75;;;;;;;;;;5012739;28;20033;-76
2022/07/04 09:48:52;;;;;;;6.03;1.20;;;;;;;;;;5012685;28;20121;-76
2022/07/04 09:51:37;;;;;;;8.40;1.40;;;;;;;;;;5012844;28;20022;-76
2022/07/04 09:54:17;;;;;;;3.28;1.20;;;;;;;;;;5012818;28;20030;-75
2022/07/04 09:56:44;;;;;;;3.92;1.55;;;;;;;;;;5023786;28;20120;-76
2022/07/04 09:59:10;;;;;;;9.18;1.80;;;;;;;;;;5026460;28;20060;-76
2022/07/04 10:01:36;;;;;;;4.47;2.03;;;;;;;;;;5041486;28;20132;-76
2022/07/04 10:04:06;;;;;;;5.28;1.50;;;;;;;;;;5024268;28;20034;-75
2022/07/04 10:06:33;;;;;;;3.22;1.00;;;;;;;;;;5027727;28;20025;-75
2022/07/04 10:09:10;;;;;;;5.63;1.20;;;;;;;;;;5041890;28;20467;-74
2022/07/04 10:11:38;;;;;;;2.90;1.00;;;;;;;;;;5040501;28;20051;-75
2022/07/04 10:14:04;;;;;;;4.07;1.00;;;;;;;;;;5043464;28;20529;-75
2022/07/04 10:16:31;;;;;;;5.53;1.15;;;;;;;;;;5033349;28;20087;-74
2022/07/04 10:18:57;;;;;;;3.17;1.20;;;;;;;;;;5031506;28;20167;-74
2022/07/04 10:21:24;;;;;;;4.72;1.30;;;;;;;;;;5030287;28;20415;-74
2022/07/04 10:23:51;;;;;;;5.60;1.35;;;;;;;;;;5031169;28;20033;-74
2022/07/04 10:26:21;;;;;;;2.55;1.10;;;;;;;;;;5029636;28;20398;-74
2022/07/04 10:28:47;;;;;;;5.85;1.08;;;;;;;;;;5031383;28;20025;-75
2022/07/04 10:31:14;;;;;;;2.85;1.20;;;;;;;;;;5030426;28;20034;-75
2022/07/04 10:33:40;;;;;;;3.35;1.15;;;;;;;;;;5029493;28;20029;-75
2022/07/04 10:36:17;;;;;;;6.53;1.40;;;;;;;;;;5031120;28;20053;-74
2022/07/04 10:38:48;;;;;;;3.75;1.20;;;;;;;;;;5030587;28;20041;-74
2022/07/04 10:41:15;;;;;;;9.30;1.27;;;;;;;;;;5028836;28;20018;-73
2022/07/04 10:43:53;;;;;;;5.90;1.05;;;;;;;;;;5030206;28;20037;-74
2022/07/04 10:46:28;;;;;;;2.88;0.90;;;;;;;;;;5028007;28;20029;-74
2022/07/04 10:48:56;;;;;;;3.35;0.98;;;;;;;;;;5028359;28;20045;-73
2022/07/04 10:51:38;;;;;;;5.15;1.27;;;;;;;;;;5036762;28;20035;-77
2022/07/04 10:54:07;;;;;;;3.75;1.13;;;;;;;;;;5029848;28;20032;-77
2022/07/04 10:56:37;;;;;;;3.10;1.00;;;;;;;;;;5025268;28;20512;-76
2022/07/04 10:59:08;;;;;;;2.28;1.00;;;;;;;;;;5031165;28;20022;-74
2022/07/04 11:01:34;;;;;;;1.50;0.90;;;;;;;;;;5028537;28;20515;-76
2022/07/04 11:04:01;;;;;;;5.03;1.10;;;;;;;;;;5028178;28;20035;-75
2022/07/04 11:06:33;;;;;;;5.05;0.93;;;;;;;;;;5029682;28;20131;-76
2022/07/04 11:09:11;;;;;;;3.38;1.08;;;;;;;;;;5030668;28;20033;-76
2022/07/04 11:11:56;;;;;;;1.80;0.90;;;;;;;;;;5027251;28;20099;-76
2022/07/04 11:14:37;;;;;;;2.70;1.10;;;;;;;;;;5027943;28;20071;-76
2022/07/04 11:17:04;;;;;;;4.67;1.70;;;;;;;;;;5029880;28;20049;-75
2022/07/04 11:19:30;;;;;;;10.70;1.50;;;;;;;;;;5028878;28;20028;-75
2022/07/04 11:21:57;;;;;;;2.78;1.38;;;;;;;;;;5030465;28;20017;-75
2022/07/04 11:24:24;;;;;;;3.67;1.30;;;;;;;;;;5030966;28;20018;-74
2022/07/04 11:26:51;;;;;;;5.70;1.75;;;;;;;;;;5031037;28;20143;-75
2022/07/04 11:29:17;;;;;;;3.78;1.40;;;;;;;;;;5034691;28;20095;-76
2022/07/04 11:31:45;;;;;;;5.78;1.63;;;;;;;;;;5034726;28;20057;-76
2022/07/04 11:34:11;;;;;;;4.80;2.10;;;;;;;;;;5034528;28;20128;-75
2022/07/04 11:36:39;;;;;;;5.15;1.40;;;;;;;;;;5034819;28;20038;-75
2022/07/04 11:39:06;;;;;;;4.05;1.35;;;;;;;;;;5034760;28;20018;-75
2022/07/04 11:47:08;;;;;;;6.10;1.65;;;;;;;;;;5032964;28;20076;-75
2022/07/04 11:49:34;;;;;;;4.22;1.70;;;;;;;;;;5034304;28;20018;-75
2022/07/04 11:52:01;;;;;;;4.95;1.80;;;;;;;;;;5034549;28;20095;-75
2022/07/04 11:54:27;;;;;;;9.88;1.70;;;;;;;;;;5034373;28;20025;-75
2022/07/04 11:56:53;;;;;;;4.30;1.20;;;;;;;;;;5031670;28;20101;-74
2022/07/04 11:59:19;;;;;;;3.70;1.35;;;;;;;;;;5034299;28;20471;-74
2022/07/04 12:01:46;;;;;;;2.15;1.02;;;;;;;;;;5034302;28;20108;-74
2022/07/04 12:04:16;;;;;;;1.67;0.90;;;;;;;;;;5034063;28;20033;-74
2022/07/04 12:06:42;;;;;;;3.30;0.90;;;;;;;;;;5034421;28;20029;-74
2022/07/04 12:09:11;;;;;;;1.65;0.93;;;;;;;;;;5034443;28;20027;-75
2022/07/04 12:11:50;;;;;;;4.25;0.93;;;;;;;;;;5035317;28;20025;-75
2022/07/04 12:14:16;;;;;;;3.38;1.10;;;;;;;;;;5029578;28;20025;-75
2022/07/04 12:16:42;;;;;;;2.38;0.95;;;;;;;;;;5017026;28;20491;-75
2022/07/04 12:19:10;;;;;;;3.38;1.27;;;;;;;;;;5021734;28;20053;-75
2022/07/04 12:21:36;;;;;;;2.10;0.90;;;;;;;;;;5034557;28;20675;-73
2022/07/04 12:24:03;;;;;;;2.50;1.27;;;;;;;;;;5034101;28;20099;-74
2022/07/04 12:26:30;;;;;;;2.33;0.82;;;;;;;;;;5034680;28;20025;-74
2022/07/04 12:28:57;;;;;;;5.15;1.27;;;;;;;;;;5034723;28;20068;-73
2022/07/04 12:31:41;;;;;;;4.70;0.90;;;;;;;;;;5035069;28;20026;-73
2022/07/04 12:34:17;;;;;;;1.63;0.80;;;;;;;;;;5034704;28;20025;-73
2022/07/04 12:36:48;;;;;;;4.53;0.98;;;;;;;;;;5034779;28;20403;-73
2022/07/04 12:39:27;;;;;;;4.00;0.80;;;;;;;;;;5034152;28;20026;-74
2022/07/04 12:42:03;;;;;;;2.33;1.00;;;;;;;;;;5034758;28;20033;-73
2022/07/04 12:44:30;;;;;;;2.83;1.00;;;;;;;;;;5032648;28;20491;-73
2022/07/04 12:46:59;;;;;;;5.57;1.27;;;;;;;;;;5031082;28;20026;-73
2022/07/04 12:49:25;;;;;;;3.97;1.17;;;;;;;;;;5034345;28;20065;-74
2022/07/04 12:51:51;;;;;;;2.22;0.95;;;;;;;;;;5034512;28;20490;-73
2022/07/04 12:54:18;;;;;;;2.28;0.90;;;;;;;;;;5034404;28;20109;-73
2022/07/04 12:56:45;;;;;;;3.35;1.02;;;;;;;;;;5034755;28;20345;-76
2022/07/04 12:59:20;;;;;;;6.47;1.00;;;;;;;;;;5034565;28;20041;-76
2022/07/04 13:01:46;;;;;;;3.63;0.90;;;;;;;;;;5034985;28;20022;-76
2022/07/04 13:04:13;;;;;;;3.78;1.00;;;;;;;;;;5035075;28;20025;-75
2022/07/04 13:06:39;;;;;;;5.57;1.02;;;;;;;;;;5034897;28;20029;-75
2022/07/04 13:09:07;;;;;;;5.43;1.00;;;;;;;;;;5034390;28;20170;-74
2022/07/04 13:14:18;;;;;;;7.22;0.90;;;;;;;;;;5034177;28;20403;-72
2022/07/04 13:16:44;;;;;;;3.50;1.05;;;;;;;;;;5033478;28;20436;-72
2022/07/04 13:19:10;;;;;;;2.90;0.95;;;;;;;;;;5032934;28;20033;-72
2022/07/04 13:21:37;;;;;;;1.92;0.90;;;;;;;;;;5033246;28;20516;-73
2022/07/04 13:24:03;;;;;;;6.18;1.02;;;;;;;;;;5033592;28;20196;-74
2022/07/04 13:26:30;;;;;;;1.55;0.70;;;;;;;;;;5033827;28;20032;-75
2022/07/04 13:28:56;;;;;;;2.80;0.75;;;;;;;;;;5035127;28;20063;-75
2022/07/04 13:31:22;;;;;;;3.58;0.80;;;;;;;;;;5043179;28;20059;-75
2022/07/04 13:33:48;;;;;;;5.07;0.90;;;;;;;;;;5053537;28;20352;-74
2022/07/04 13:36:14;;;;;;;2.78;0.90;;;;;;;;;;5053656;28;20024;-73
2022/07/04 13:38:41;;;;;;;6.35;0.90;;;;;;;;;;5050281;28;20070;-73
2022/07/04 13:41:07;;;;;;;2.65;0.70;;;;;;;;;;5033906;28;20045;-74
2022/07/04 13:43:33;;;;;;;3.45;1.00;;;;;;;;;;5033325;28;20043;-76
2022/07/04 13:45:59;;;;;;;7.65;0.93;;;;;;;;;;5033883;28;20057;-76
2022/07/04 13:48:25;;;;;;;3.05;0.80;;;;;;;;;;5034264;28;20419;-76
2022/07/04 13:50:51;;;;;;;2.88;0.60;;;;;;;;;;5036156;28;20293;-77
2022/07/04 13:53:18;;;;;;;3.13;0.70;;;;;;;;;;5052705;28;20024;-76
2022/07/04 13:55:44;;;;;;;3.90;0.80;;;;;;;;;;5042197;28;20063;-76
2022/07/04 13:58:10;;;;;;;2.25;0.57;;;;;;;;;;5034212;28;20193;-76
2022/07/04 14:00:37;;;;;;;1.20;0.73;;;;;;;;;;5034117;28;20356;-78
2022/07/04 14:03:04;;;;;;;2.13;0.60;;;;;;;;;;5033997;28;20036;-77
2022/07/04 14:05:31;;;;;;;3.65;0.77;;;;;;;;;;5034157;28;20345;-76
2022/07/04 14:07:57;;;;;;;4.85;1.00;;;;;;;;;;5033446;28;20424;-77
2022/07/04 14:10:23;;;;;;;2.13;0.80;;;;;;;;;;5034007;28;20038;-75
2022/07/04 14:12:49;;;;;;;2.10;0.73;;;;;;;;;;5052081;28;20028;-74
2022/07/04 14:15:16;;;;;;;2.63;0.70;;;;;;;;;;5039344;28;20017;-76
2022/07/04 14:17:42;;;;;;;1.98;0.80;;;;;;;;;;5033171;28;20018;-77
2022/07/04 14:20:09;;;;;;;3.50;0.80;;;;;;;;;;5033537;28;20017;-77
2022/07/04 14:22:35;;;;;;;4.70;0.90;;;;;;;;;;5032935;28;20068;-76
2022/07/04 14:25:01;;;;;;;4.45;0.75;;;;;;;;;;5035821;28;20489;-77
2022/07/04 14:27:27;;;;;;;2.00;0.82;;;;;;;;;;5043489;28;20447;-78
2022/07/04 14:29:53;;;;;;;5.13;0.93;;;;;;;;;;5052695;28;20029;-76
2022/07/04 14:32:20;;;;;;;6.70;0.90;;;;;;;;;;5041685;28;20029;-78
2022/07/04 14:34:46;;;;;;;3.25;0.80;;;;;;;;;;5039223;28;20381;-79
2022/07/04 14:37:12;;;;;;;1.65;0.82;;;;;;;;;;5033229;28;20091;-78
2022/07/04 14:39:38;;;;;;;2.30;0.80;;;;;;;;;;5033398;28;20104;-75
2022/07/04 14:42:04;;;;;;;2.63;0.70;;;;;;;;;;5032678;28;20038;-74
2022/07/04 14:44:30;;;;;;;1.33;0.65;;;;;;;;;;5032549;28;20065;-75
2022/07/04 14:46:57;;;;;;;4.05;0.85;;;;;;;;;;5034163;28;20021;-75
2022/07/04 14:49:23;;;;;;;4.53;0.77;;;;;;;;;;5032737;28;20147;-75
2022/07/04 14:51:49;;;;;;;1.98;0.80;;;;;;;;;;5029981;28;20032;-76
2022/07/04 14:54:15;;;;;;;3.47;0.80;;;;;;;;;;5031995;28;20059;-76
2022/07/04 14:56:41;;;;;;;3.90;0.70;;;;;;;;;;5032130;28;20348;-76
2022/07/04 14:59:07;;;;;;;1.55;0.60;;;;;;;;;;5031809;28;20033;-75